sensor_id;sensor_type;location;lat;lon;timestamp;pressure;altitude;pressure_sealevel;temperature;humidity
41596;BME280;27283;52.504;13.358;2023-02-19T00:01:24;101068.16;;;6.34;90.84
41596;BME280;27283;52.504;13.358;2023-02-19T00:03:58;101070.94;;;6.53;90.94
41596;BME280;27283;52.504;13.358;2023-02-19T00:06:32;101065.28;;;6.26;90.87
41596;BME280;27283;52.504;13.358;2023-02-19T00:09:04;101065.94;;;6.18;91.79
41596;BME280;27283;52.504;13.358;2023-02-19T00:11:37;101067.91;;;5.72;94.37
41596;BME280;27283;52.504;13.358;2023-02-19T00:14:10;101065.44;;;5.48;95.30
41596;BME280;27283;52.504;13.358;2023-02-19T00:16:48;101063.44;;;5.73;95.88
41596;BME280;27283;52.504;13.358;2023-02-19T00:19:20;101061.81;;;6.14;93.72
41596;BME280;27283;52.504;13.358;2023-02-19T00:21:52;101059.81;;;6.06;93.04
41596;BME280;27283;52.504;13.358;2023-02-19T00:24:24;101062.63;;;5.93;93.67
41596;BME280;27283;52.504;13.358;2023-02-19T00:26:56;101059.63;;;6.19;93.72
41596;BME280;27283;52.504;13.358;2023-02-19T00:29:30;101053.25;;;6.31;92.75
41596;BME280;27283;52.504;13.358;2023-02-19T00:32:04;101047.50;;;6.57;91.58
41596;BME280;27283;52.504;13.358;2023-02-19T00:34:36;101042.66;;;6.72;90.51
41596;BME280;27283;52.504;13.358;2023-02-19T00:37:07;101041.31;;;5.82;93.91
41596;BME280;27283;52.504;13.358;2023-02-19T00:39:39;101039.59;;;5.92;96.12
41596;BME280;27283;52.504;13.358;2023-02-19T00:42:10;101037.69;;;5.83;96.65
41596;BME280;27283;52.504;13.358;2023-02-19T00:44:45;101032.34;;;5.83;97.22
41596;BME280;27283;52.504;13.358;2023-02-19T00:50:39;101030.84;;;6.23;96.22
41596;BME280;27283;52.504;13.358;2023-02-19T00:53:12;101029.00;;;6.23;95.66
41596;BME280;27283;52.504;13.358;2023-02-19T00:55:44;101029.91;;;6.54;94.62
41596;BME280;27283;52.504;13.358;2023-02-19T00:58:16;101026.38;;;6.54;93.68
41596;BME280;27283;52.504;13.358;2023-02-19T01:00:49;101025.66;;;6.52;94.13
41596;BME280;27283;52.504;13.358;2023-02-19T01:03:32;101029.88;;;6.02;96.99
41596;BME280;27283;52.504;13.358;2023-02-19T01:06:09;101027.06;;;5.93;97.72
41596;BME280;27283;52.504;13.358;2023-02-19T01:08:42;101017.59;;;5.35;100.00
41596;BME280;27283;52.504;13.358;2023-02-19T01:11:16;101014.44;;;5.74;100.00
41596;BME280;27283;52.504;13.358;2023-02-19T01:13:48;101015.59;;;5.81;99.70
41596;BME280;27283;52.504;13.358;2023-02-19T01:16:21;101003.88;;;6.05;98.57
41596;BME280;27283;52.504;13.358;2023-02-19T01:18:56;101006.59;;;6.14;98.35
41596;BME280;27283;52.504;13.358;2023-02-19T01:21:32;101007.00;;;6.10;97.79
41596;BME280;27283;52.504;13.358;2023-02-19T01:24:04;100998.75;;;5.80;98.71
41596;BME280;27283;52.504;13.358;2023-02-19T01:26:37;100978.38;;;5.79;100.00
41596;BME280;27283;52.504;13.358;2023-02-19T01:29:09;100973.81;;;5.70;100.00
41596;BME280;27283;52.504;13.358;2023-02-19T01:31:42;100968.97;;;5.96;100.00
41596;BME280;27283;52.504;13.358;2023-02-19T01:34:15;100954.56;;;5.66;99.97
41596;BME280;27283;52.504;13.358;2023-02-19T01:36:50;100967.03;;;5.66;97.98
41596;BME280;27283;52.504;13.358;2023-02-19T01:39:22;100979.00;;;5.18;99.11
41596;BME280;27283;52.504;13.358;2023-02-19T01:41:55;100981.28;;;5.23;99.33
41596;BME280;27283;52.504;13.358;2023-02-19T01:47:50;100970.91;;;4.86;100.00
41596;BME280;27283;52.504;13.358;2023-02-19T01:50:27;100967.78;;;4.69;100.00
41596;BME280;27283;52.504;13.358;2023-02-19T01:53:06;100954.09;;;4.85;100.00
41596;BME280;27283;52.504;13.358;2023-02-19T01:55:40;100959.19;;;4.88;100.00
41596;BME280;27283;52.504;13.358;2023-02-19T01:58:15;100958.56;;;4.96;100.00
41596;BME280;27283;52.504;13.358;2023-02-19T02:00:47;100954.34;;;4.48;100.00
41596;BME280;27283;52.504;13.358;2023-02-19T02:03:20;100953.03;;;4.31;100.00
41596;BME280;27283;52.504;13.358;2023-02-19T02:05:56;100940.81;;;4.51;100.00
41596;BME280;27283;52.504;13.358;2023-02-19T02:08:34;100938.72;;;4.77;100.00
41596;BME280;27283;52.504;13.358;2023-02-19T02:11:20;100934.44;;;4.97;100.00
41596;BME280;27283;52.504;13.358;2023-02-19T02:13:53;100931.78;;;4.97;100.00
41596;BME280;27283;52.504;13.358;2023-02-19T02:16:31;100942.50;;;4.52;100.00
41596;BME280;27283;52.504;13.358;2023-02-19T02:19:20;100948.44;;;4.33;100.00
41596;BME280;27283;52.504;13.358;2023-02-19T02:22:01;100948.91;;;4.27;100.00
41596;BME280;27283;52.504;13.358;2023-02-19T02:27:52;100944.31;;;4.63;100.00
41596;BME280;27283;52.504;13.358;2023-02-19T02:30:34;100952.66;;;4.36;100.00
41596;BME280;27283;52.504;13.358;2023-02-19T02:33:22;100951.22;;;4.43;100.00
41596;BME280;27283;52.504;13.358;2023-02-19T02:36:01;100943.97;;;4.56;100.00
41596;BME280;27283;52.504;13.358;2023-02-19T02:38:38;100944.19;;;4.42;99.51
41596;BME280;27283;52.504;13.358;2023-02-19T02:41:13;100939.72;;;4.54;99.11
41596;BME280;27283;52.504;13.358;2023-02-19T02:43:46;100938.28;;;4.38;98.90
41596;BME280;27283;52.504;13.358;2023-02-19T02:46:24;100937.31;;;4.62;99.30
41596;BME280;27283;52.504;13.358;2023-02-19T02:49:02;100932.22;;;4.59;98.42
41596;BME280;27283;52.504;13.358;2023-02-19T02:51:39;100939.69;;;4.88;98.09
41596;BME280;27283;52.504;13.358;2023-02-19T02:54:15;100944.22;;;4.31;97.99
41596;BME280;27283;52.504;13.358;2023-02-19T02:57:01;100944.31;;;4.18;98.30
41596;BME280;27283;52.504;13.358;2023-02-19T02:59:35;100944.44;;;4.39;98.33
41596;BME280;27283;52.504;13.358;2023-02-19T03:02:15;100953.41;;;4.38;98.53
41596;BME280;27283;52.504;13.358;2023-02-19T03:04:51;100946.59;;;4.22;99.46
41596;BME280;27283;52.504;13.358;2023-02-19T03:07:42;100945.06;;;4.65;97.89
41596;BME280;27283;52.504;13.358;2023-02-19T03:10:21;100957.75;;;4.73;96.35
41596;BME280;27283;52.504;13.358;2023-02-19T03:12:56;100951.94;;;4.45;97.20
41596;BME280;27283;52.504;13.358;2023-02-19T03:15:46;100951.34;;;4.41;98.58
41596;BME280;27283;52.504;13.358;2023-02-19T03:18:36;100956.06;;;4.49;98.14
41596;BME280;27283;52.504;13.358;2023-02-19T03:21:25;100956.06;;;4.26;99.56
41596;BME280;27283;52.504;13.358;2023-02-19T03:24:00;100964.75;;;4.51;98.20
41596;BME280;27283;52.504;13.358;2023-02-19T03:26:46;100969.84;;;4.54;97.42
41596;BME280;27283;52.504;13.358;2023-02-19T03:29:23;100965.16;;;4.35;97.18
41596;BME280;27283;52.504;13.358;2023-02-19T03:32:00;100972.75;;;4.17;97.91
41596;BME280;27283;52.504;13.358;2023-02-19T03:34:40;100969.81;;;3.98;97.54
41596;BME280;27283;52.504;13.358;2023-02-19T03:37:17;100971.00;;;3.94;98.84
41596;BME280;27283;52.504;13.358;2023-02-19T03:39:55;100975.25;;;3.96;98.09
41596;BME280;27283;52.504;13.358;2023-02-19T03:42:36;100968.84;;;4.10;97.48
41596;BME280;27283;52.504;13.358;2023-02-19T03:45:30;100982.63;;;3.93;98.75
41596;BME280;27283;52.504;13.358;2023-02-19T03:48:19;100972.22;;;3.89;98.75
41596;BME280;27283;52.504;13.358;2023-02-19T03:51:11;100982.25;;;3.50;97.38
41596;BME280;27283;52.504;13.358;2023-02-19T03:53:54;100980.75;;;3.70;96.14
41596;BME280;27283;52.504;13.358;2023-02-19T03:56:38;100988.91;;;3.32;96.59
41596;BME280;27283;52.504;13.358;2023-02-19T03:59:17;100986.13;;;3.09;97.75
41596;BME280;27283;52.504;13.358;2023-02-19T04:01:55;100981.59;;;3.47;96.47
41596;BME280;27283;52.504;13.358;2023-02-19T04:04:32;100988.72;;;2.98;98.16
41596;BME280;27283;52.504;13.358;2023-02-19T04:07:10;101001.22;;;3.33;97.40
41596;BME280;27283;52.504;13.358;2023-02-19T04:09:58;100996.41;;;3.14;97.07
41596;BME280;27283;52.504;13.358;2023-02-19T04:12:31;100992.88;;;3.26;98.04
41596;BME280;27283;52.504;13.358;2023-02-19T04:15:07;101009.66;;;3.27;97.59
41596;BME280;27283;52.504;13.358;2023-02-19T04:17:44;101008.19;;;3.47;96.79
41596;BME280;27283;52.504;13.358;2023-02-19T04:20:20;101004.97;;;3.30;97.54
41596;BME280;27283;52.504;13.358;2023-02-19T04:22:57;101002.19;;;3.32;97.51
41596;BME280;27283;52.504;13.358;2023-02-19T04:25:30;101008.97;;;3.12;98.39
41596;BME280;27283;52.504;13.358;2023-02-19T04:28:04;101009.69;;;3.14;98.66
41596;BME280;27283;52.504;13.358;2023-02-19T04:30:36;101023.06;;;3.25;98.81
41596;BME280;27283;52.504;13.358;2023-02-19T04:33:09;101018.50;;;2.77;99.21
41596;BME280;27283;52.504;13.358;2023-02-19T04:35:41;101023.38;;;2.83;99.86
41596;BME280;27283;52.504;13.358;2023-02-19T04:38:16;101033.09;;;3.09;98.27
41596;BME280;27283;52.504;13.358;2023-02-19T04:40:48;101026.00;;;2.96;98.96
41596;BME280;27283;52.504;13.358;2023-02-19T04:43:21;101028.91;;;2.80;98.58
41596;BME280;27283;52.504;13.358;2023-02-19T04:45:53;101033.16;;;3.20;98.25
41596;BME280;27283;52.504;13.358;2023-02-19T04:48:26;101020.81;;;2.95;99.03
41596;BME280;27283;52.504;13.358;2023-02-19T04:50:58;101023.09;;;3.12;98.26
41596;BME280;27283;52.504;13.358;2023-02-19T04:53:33;101027.06;;;2.94;98.71
41596;BME280;27283;52.504;13.358;2023-02-19T04:56:07;101034.53;;;2.76;100.00
41596;BME280;27283;52.504;13.358;2023-02-19T04:58:40;101038.38;;;2.84;99.90
41596;BME280;27283;52.504;13.358;2023-02-19T05:01:13;101040.63;;;2.52;100.00
41596;BME280;27283;52.504;13.358;2023-02-19T05:03:45;101042.50;;;2.76;100.00
41596;BME280;27283;52.504;13.358;2023-02-19T05:06:18;101038.91;;;2.64;100.00
41596;BME280;27283;52.504;13.358;2023-02-19T05:08:53;101040.06;;;2.86;100.00
41596;BME280;27283;52.504;13.358;2023-02-19T05:11:25;101042.41;;;2.90;100.00
41596;BME280;27283;52.504;13.358;2023-02-19T05:13:58;101043.78;;;2.70;100.00
41596;BME280;27283;52.504;13.358;2023-02-19T05:16:30;101045.06;;;2.52;100.00
41596;BME280;27283;52.504;13.358;2023-02-19T05:19:05;101037.44;;;2.47;100.00
41596;BME280;27283;52.504;13.358;2023-02-19T05:21:38;101045.09;;;2.64;100.00
41596;BME280;27283;52.504;13.358;2023-02-19T05:24:17;101034.44;;;2.77;100.00
41596;BME280;27283;52.504;13.358;2023-02-19T05:26:49;101034.25;;;2.42;100.00
41596;BME280;27283;52.504;13.358;2023-02-19T05:29:22;101035.53;;;2.36;100.00
41596;BME280;27283;52.504;13.358;2023-02-19T05:31:54;101044.53;;;2.21;100.00
41596;BME280;27283;52.504;13.358;2023-02-19T05:34:27;101039.78;;;2.39;100.00
41596;BME280;27283;52.504;13.358;2023-02-19T05:36:59;101040.09;;;2.34;100.00
41596;BME280;27283;52.504;13.358;2023-02-19T05:39:35;101039.78;;;2.39;100.00
41596;BME280;27283;52.504;13.358;2023-02-19T05:42:07;101048.69;;;2.51;100.00
41596;BME280;27283;52.504;13.358;2023-02-19T05:44:39;101045.91;;;2.26;100.00
41596;BME280;27283;52.504;13.358;2023-02-19T05:47:12;101053.88;;;2.39;100.00
41596;BME280;27283;52.504;13.358;2023-02-19T05:49:44;101052.72;;;2.30;100.00
41596;BME280;27283;52.504;13.358;2023-02-19T05:52:16;101052.41;;;2.61;100.00
41596;BME280;27283;52.504;13.358;2023-02-19T05:54:52;101061.75;;;2.54;100.00
41596;BME280;27283;52.504;13.358;2023-02-19T05:57:39;101057.28;;;2.67;100.00
41596;BME280;27283;52.504;13.358;2023-02-19T06:00:27;101055.91;;;2.48;100.00
41596;BME280;27283;52.504;13.358;2023-02-19T06:02:59;101054.22;;;2.60;100.00
41596;BME280;27283;52.504;13.358;2023-02-19T06:05:32;101058.56;;;2.61;100.00
41596;BME280;27283;52.504;13.358;2023-02-19T06:08:04;101052.50;;;2.59;100.00
41596;BME280;27283;52.504;13.358;2023-02-19T06:10:40;101057.69;;;2.61;100.00
41596;BME280;27283;52.504;13.358;2023-02-19T06:13:12;101060.47;;;2.72;100.00
41596;BME280;27283;52.504;13.358;2023-02-19T06:15:46;101066.09;;;2.68;100.00
41596;BME280;27283;52.504;13.358;2023-02-19T06:18:18;101060.38;;;2.74;100.00
41596;BME280;27283;52.504;13.358;2023-02-19T06:20:51;101050.59;;;2.10;100.00
41596;BME280;27283;52.504;13.358;2023-02-19T06:23:23;101044.41;;;1.97;100.00
41596;BME280;27283;52.504;13.358;2023-02-19T06:26:10;101052.72;;;2.43;100.00
41596;BME280;27283;52.504;13.358;2023-02-19T06:28:44;101059.09;;;2.79;100.00
41596;BME280;27283;52.504;13.358;2023-02-19T06:31:20;101054.72;;;2.78;100.00
41596;BME280;27283;52.504;13.358;2023-02-19T06:33:53;101081.25;;;3.04;100.00
41596;BME280;27283;52.504;13.358;2023-02-19T06:36:26;101087.63;;;3.14;98.93
41596;BME280;27283;52.504;13.358;2023-02-19T06:39:00;101088.25;;;3.18;98.01
41596;BME280;27283;52.504;13.358;2023-02-19T06:41:35;101104.28;;;3.16;97.82
41596;BME280;27283;52.504;13.358;2023-02-19T06:44:07;101114.31;;;3.13;97.63
41596;BME280;27283;52.504;13.358;2023-02-19T06:46:40;101115.69;;;2.67;98.47
41596;BME280;27283;52.504;13.358;2023-02-19T06:49:12;101125.16;;;2.97;98.54
41596;BME280;27283;52.504;13.358;2023-02-19T06:51:45;101128.84;;;2.94;98.34
41596;BME280;27283;52.504;13.358;2023-02-19T06:54:17;101136.19;;;3.16;97.92
41596;BME280;27283;52.504;13.358;2023-02-19T06:56:52;101129.69;;;3.21;96.60
41596;BME280;27283;52.504;13.358;2023-02-19T06:59:26;101133.44;;;3.55;95.08
41596;BME280;27283;52.504;13.358;2023-02-19T07:01:59;101147.03;;;2.75;96.61
41596;BME280;27283;52.504;13.358;2023-02-19T07:04:31;101149.38;;;2.92;97.53
41596;BME280;27283;52.504;13.358;2023-02-19T07:07:04;101144.69;;;3.09;96.34
41596;BME280;27283;52.504;13.358;2023-02-19T07:09:36;101151.41;;;2.89;96.68
41596;BME280;27283;52.504;13.358;2023-02-19T07:12:15;101145.16;;;3.40;96.33
41596;BME280;27283;52.504;13.358;2023-02-19T07:14:47;101155.13;;;2.99;95.50
41596;BME280;27283;52.504;13.358;2023-02-19T07:17:19;101159.75;;;3.34;94.77
41596;BME280;27283;52.504;13.358;2023-02-19T07:20:19;101166.16;;;3.06;93.76
41596;BME280;27283;52.504;13.358;2023-02-19T07:22:52;101166.97;;;3.32;91.39
41596;BME280;27283;52.504;13.358;2023-02-19T07:25:23;101163.09;;;2.99;94.43
41596;BME280;27283;52.504;13.358;2023-02-19T07:27:58;101167.59;;;3.48;94.08
41596;BME280;27283;52.504;13.358;2023-02-19T07:30:30;101167.63;;;3.23;94.69
41596;BME280;27283;52.504;13.358;2023-02-19T07:33:02;101179.59;;;3.67;93.54
41596;BME280;27283;52.504;13.358;2023-02-19T07:35:37;101184.44;;;3.10;94.11
41596;BME280;27283;52.504;13.358;2023-02-19T07:38:18;101183.44;;;3.50;94.28
41596;BME280;27283;52.504;13.358;2023-02-19T07:40:50;101200.19;;;3.00;95.10
41596;BME280;27283;52.504;13.358;2023-02-19T07:43:27;101201.41;;;2.69;95.78
41596;BME280;27283;52.504;13.358;2023-02-19T07:46:02;101196.31;;;3.30;94.64
41596;BME280;27283;52.504;13.358;2023-02-19T07:48:44;101203.41;;;3.68;94.05
41596;BME280;27283;52.504;13.358;2023-02-19T07:51:18;101207.25;;;3.64;93.58
41596;BME280;27283;52.504;13.358;2023-02-19T07:53:51;101212.38;;;3.29;92.56
41596;BME280;27283;52.504;13.358;2023-02-19T07:56:22;101213.72;;;3.60;92.01
41596;BME280;27283;52.504;13.358;2023-02-19T07:58:59;101225.97;;;3.50;91.59
41596;BME280;27283;52.504;13.358;2023-02-19T08:01:31;101234.38;;;3.44;92.23
41596;BME280;27283;52.504;13.358;2023-02-19T08:04:15;101242.69;;;3.39;93.72
41596;BME280;27283;52.504;13.358;2023-02-19T08:06:47;101243.97;;;3.46;91.56
41596;BME280;27283;52.504;13.358;2023-02-19T08:09:19;101254.03;;;3.41;91.24
41596;BME280;27283;52.504;13.358;2023-02-19T08:12:11;101257.00;;;3.62;91.80
41596;BME280;27283;52.504;13.358;2023-02-19T08:15:01;101258.28;;;3.82;90.74
41596;BME280;27283;52.504;13.358;2023-02-19T08:17:32;101262.78;;;4.06;89.51
41596;BME280;27283;52.504;13.358;2023-02-19T08:20:05;101274.09;;;3.97;88.02
41596;BME280;27283;52.504;13.358;2023-02-19T08:22:37;101280.09;;;3.75;88.85
41596;BME280;27283;52.504;13.358;2023-02-19T08:25:09;101281.63;;;4.03;89.05
41596;BME280;27283;52.504;13.358;2023-02-19T08:27:41;101293.78;;;4.31;87.02
41596;BME280;27283;52.504;13.358;2023-02-19T08:30:16;101305.41;;;3.93;88.57
41596;BME280;27283;52.504;13.358;2023-02-19T08:32:48;101305.78;;;4.00;88.40
41596;BME280;27283;52.504;13.358;2023-02-19T08:35:21;101303.06;;;3.76;86.91
41596;BME280;27283;52.504;13.358;2023-02-19T08:37:54;101315.41;;;3.89;88.28
41596;BME280;27283;52.504;13.358;2023-02-19T08:40:27;101323.81;;;3.70;88.41
41596;BME280;27283;52.504;13.358;2023-02-19T08:43:02;101321.97;;;3.97;87.74
41596;BME280;27283;52.504;13.358;2023-02-19T08:45:37;101324.75;;;4.08;87.78
41596;BME280;27283;52.504;13.358;2023-02-19T08:48:09;101324.69;;;4.34;85.99
41596;BME280;27283;52.504;13.358;2023-02-19T08:50:42;101331.03;;;4.44;85.11
41596;BME280;27283;52.504;13.358;2023-02-19T08:53:14;101339.66;;;4.35;85.66
41596;BME280;27283;52.504;13.358;2023-02-19T08:55:46;101345.31;;;4.30;85.58
41596;BME280;27283;52.504;13.358;2023-02-19T08:58:18;101351.38;;;4.69;84.80
41596;BME280;27283;52.504;13.358;2023-02-19T09:00:54;101357.91;;;4.65;83.76
41596;BME280;27283;52.504;13.358;2023-02-19T09:03:26;101347.72;;;4.83;83.14
41596;BME280;27283;52.504;13.358;2023-02-19T09:05:59;101358.97;;;4.38;83.02
41596;BME280;27283;52.504;13.358;2023-02-19T09:08:31;101358.00;;;4.39;84.78
41596;BME280;27283;52.504;13.358;2023-02-19T09:11:04;101367.19;;;4.59;83.28
41596;BME280;27283;52.504;13.358;2023-02-19T09:13:37;101365.22;;;4.50;83.10
41596;BME280;27283;52.504;13.358;2023-02-19T09:16:12;101368.00;;;4.73;83.19
41596;BME280;27283;52.504;13.358;2023-02-19T09:18:45;101365.38;;;5.08;80.22
41596;BME280;27283;52.504;13.358;2023-02-19T09:21:17;101375.50;;;5.27;81.01
41596;BME280;27283;52.504;13.358;2023-02-19T09:24:20;101377.00;;;5.31;81.07
41596;BME280;27283;52.504;13.358;2023-02-19T09:26:54;101376.03;;;5.08;81.20
41596;BME280;27283;52.504;13.358;2023-02-19T09:29:27;101378.25;;;5.50;79.95
41596;BME280;27283;52.504;13.358;2023-02-19T09:32:03;101386.13;;;4.92;81.17
41596;BME280;27283;52.504;13.358;2023-02-19T09:34:35;101383.09;;;5.21;80.97
41596;BME280;27283;52.504;13.358;2023-02-19T09:37:08;101391.09;;;4.85;80.96
41596;BME280;27283;52.504;13.358;2023-02-19T09:39:40;101401.72;;;5.33;79.37
41596;BME280;27283;52.504;13.358;2023-02-19T09:42:16;101398.56;;;5.28;79.91
41596;BME280;27283;52.504;13.358;2023-02-19T09:44:52;101403.50;;;4.97;80.07
41596;BME280;27283;52.504;13.358;2023-02-19T09:47:30;101399.84;;;5.58;78.38
41596;BME280;27283;52.504;13.358;2023-02-19T09:50:07;101406.97;;;6.16;76.37
41596;BME280;27283;52.504;13.358;2023-02-19T09:52:44;101410.38;;;6.29;74.00
41596;BME280;27283;52.504;13.358;2023-02-19T09:55:28;101419.00;;;6.55;72.73
41596;BME280;27283;52.504;13.358;2023-02-19T09:58:15;101417.53;;;6.63;72.13
41596;BME280;27283;52.504;13.358;2023-02-19T10:00:49;101428.50;;;6.26;72.59
41596;BME280;27283;52.504;13.358;2023-02-19T10:03:28;101426.41;;;6.63;70.75
41596;BME280;27283;52.504;13.358;2023-02-19T10:06:06;101432.41;;;6.99;70.23
41596;BME280;27283;52.504;13.358;2023-02-19T10:08:40;101432.78;;;6.95;68.79
41596;BME280;27283;52.504;13.358;2023-02-19T10:11:13;101438.44;;;6.69;69.92
41596;BME280;27283;52.504;13.358;2023-02-19T10:13:49;101447.94;;;7.38;67.32
41596;BME280;27283;52.504;13.358;2023-02-19T10:16:25;101439.84;;;7.28;67.60
41596;BME280;27283;52.504;13.358;2023-02-19T10:19:01;101456.19;;;7.46;65.29
41596;BME280;27283;52.504;13.358;2023-02-19T10:21:33;101448.47;;;7.64;64.97
41596;BME280;27283;52.504;13.358;2023-02-19T10:24:06;101475.34;;;7.62;65.29
41596;BME280;27283;52.504;13.358;2023-02-19T10:26:39;101469.25;;;7.60;64.29
41596;BME280;27283;52.504;13.358;2023-02-19T10:29:12;101473.75;;;6.84;64.59
41596;BME280;27283;52.504;13.358;2023-02-19T10:31:44;101472.94;;;6.27;67.25
41596;BME280;27283;52.504;13.358;2023-02-19T10:34:21;101483.25;;;6.54;67.36
41596;BME280;27283;52.504;13.358;2023-02-19T10:36:53;101480.66;;;6.07;68.76
41596;BME280;27283;52.504;13.358;2023-02-19T10:39:41;101492.00;;;6.45;66.11
41596;BME280;27283;52.504;13.358;2023-02-19T10:42:19;101497.16;;;6.12;66.91
41596;BME280;27283;52.504;13.358;2023-02-19T10:44:53;101505.34;;;6.33;66.60
41596;BME280;27283;52.504;13.358;2023-02-19T10:47:31;101502.69;;;6.67;64.87
41596;BME280;27283;52.504;13.358;2023-02-19T10:50:24;101495.53;;;7.34;63.92
41596;BME280;27283;52.504;13.358;2023-02-19T10:52:58;101511.28;;;7.49;62.14
41596;BME280;27283;52.504;13.358;2023-02-19T10:55:33;101507.44;;;6.52;60.91
41596;BME280;27283;52.504;13.358;2023-02-19T10:58:21;101511.66;;;6.44;61.61
41596;BME280;27283;52.504;13.358;2023-02-19T11:01:14;101520.75;;;7.09;62.84
41596;BME280;27283;52.504;13.358;2023-02-19T11:03:49;101514.06;;;6.24;62.04
41596;BME280;27283;52.504;13.358;2023-02-19T11:06:25;101525.28;;;6.63;63.13
41596;BME280;27283;52.504;13.358;2023-02-19T11:08:59;101529.16;;;6.82;62.46
41596;BME280;27283;52.504;13.358;2023-02-19T11:11:34;101533.66;;;6.59;64.10
41596;BME280;27283;52.504;13.358;2023-02-19T11:14:14;101539.97;;;7.14;60.67
41596;BME280;27283;52.504;13.358;2023-02-19T11:16:49;101543.22;;;7.61;59.62
41596;BME280;27283;52.504;13.358;2023-02-19T11:19:36;101552.22;;;7.17;60.65
41596;BME280;27283;52.504;13.358;2023-02-19T11:22:28;101561.47;;;6.56;61.76
41596;BME280;27283;52.504;13.358;2023-02-19T11:25:04;101558.31;;;6.51;62.49
41596;BME280;27283;52.504;13.358;2023-02-19T11:27:53;101560.97;;;6.62;59.92
41596;BME280;27283;52.504;13.358;2023-02-19T11:30:37;101553.47;;;6.90;58.45
41596;BME280;27283;52.504;13.358;2023-02-19T11:33:28;101564.13;;;6.45;60.82
41596;BME280;27283;52.504;13.358;2023-02-19T11:36:23;101558.69;;;7.03;60.10
41596;BME280;27283;52.504;13.358;2023-02-19T11:39:13;101570.38;;;7.89;56.45
41596;BME280;27283;52.504;13.358;2023-02-19T11:42:05;101577.91;;;7.52;57.38
41596;BME280;27283;52.504;13.358;2023-02-19T11:44:50;101578.47;;;7.23;58.60
41596;BME280;27283;52.504;13.358;2023-02-19T11:47:48;101563.34;;;7.88;57.23
41596;BME280;27283;52.504;13.358;2023-02-19T11:50:29;101565.22;;;7.21;57.73
41596;BME280;27283;52.504;13.358;2023-02-19T11:53:15;101570.06;;;7.27;55.29
41596;BME280;27283;52.504;13.358;2023-02-19T11:56:13;101563.66;;;6.62;56.71
41596;BME280;27283;52.504;13.358;2023-02-19T11:59:02;101561.94;;;6.61;57.15
41596;BME280;27283;52.504;13.358;2023-02-19T12:04:56;101571.03;;;6.47;56.67
41596;BME280;27283;52.504;13.358;2023-02-19T12:08:14;101585.91;;;6.97;56.24
41596;BME280;27283;52.504;13.358;2023-02-19T12:11:13;101571.41;;;7.33;53.99
41596;BME280;27283;52.504;13.358;2023-02-19T12:14:19;101588.72;;;7.61;54.13
41596;BME280;27283;52.504;13.358;2023-02-19T12:17:00;101596.25;;;6.67;56.32
41596;BME280;27283;52.504;13.358;2023-02-19T12:19:51;101598.66;;;6.70;58.10
41596;BME280;27283;52.504;13.358;2023-02-19T12:22:29;101584.78;;;6.65;56.42
41596;BME280;27283;52.504;13.358;2023-02-19T12:25:21;101585.06;;;6.15;59.16
41596;BME280;27283;52.504;13.358;2023-02-19T12:28:36;101598.31;;;6.98;56.85
41596;BME280;27283;52.504;13.358;2023-02-19T12:31:43;101602.19;;;6.94;56.04
41596;BME280;27283;52.504;13.358;2023-02-19T12:34:34;101596.59;;;6.74;56.02
41596;BME280;27283;52.504;13.358;2023-02-19T12:37:20;101609.84;;;6.98;55.99
41596;BME280;27283;52.504;13.358;2023-02-19T12:40:12;101598.06;;;7.12;55.96
41596;BME280;27283;52.504;13.358;2023-02-19T12:42:55;101614.22;;;7.33;54.79
41596;BME280;27283;52.504;13.358;2023-02-19T12:45:39;101608.84;;;7.44;55.26
41596;BME280;27283;52.504;13.358;2023-02-19T12:48:19;101608.75;;;7.12;55.72
41596;BME280;27283;52.504;13.358;2023-02-19T12:50:58;101601.78;;;6.53;56.26
41596;BME280;27283;52.504;13.358;2023-02-19T12:53:39;101609.00;;;7.20;56.24
41596;BME280;27283;52.504;13.358;2023-02-19T12:56:17;101612.63;;;7.08;55.01
41596;BME280;27283;52.504;13.358;2023-02-19T12:58:53;101611.69;;;7.20;54.59
41596;BME280;27283;52.504;13.358;2023-02-19T13:01:38;101618.47;;;7.36;55.44
41596;BME280;27283;52.504;13.358;2023-02-19T13:04:24;101613.06;;;6.56;55.19
41596;BME280;27283;52.504;13.358;2023-02-19T13:07:02;101625.06;;;7.20;54.20
41596;BME280;27283;52.504;13.358;2023-02-19T13:09:40;101625.03;;;7.32;54.00
41596;BME280;27283;52.504;13.358;2023-02-19T13:12:20;101618.34;;;7.03;54.69
41596;BME280;27283;52.504;13.358;2023-02-19T13:14:56;101629.06;;;6.92;53.54
41596;BME280;27283;52.504;13.358;2023-02-19T13:17:37;101627.03;;;7.73;51.09
41596;BME280;27283;52.504;13.358;2023-02-19T13:20:14;101640.75;;;7.25;52.18
41596;BME280;27283;52.504;13.358;2023-02-19T13:22:56;101640.22;;;6.97;52.63
41596;BME280;27283;52.504;13.358;2023-02-19T13:25:53;101634.25;;;6.71;53.71
41596;BME280;27283;52.504;13.358;2023-02-19T13:28:45;101636.00;;;6.95;53.90
41596;BME280;27283;52.504;13.358;2023-02-19T13:31:31;101629.53;;;7.31;53.40
41596;BME280;27283;52.504;13.358;2023-02-19T13:34:17;101641.56;;;6.80;54.70
41596;BME280;27283;52.504;13.358;2023-02-19T13:36:54;101646.66;;;6.83;55.42
41596;BME280;27283;52.504;13.358;2023-02-19T13:39:26;101647.22;;;6.64;56.67
41596;BME280;27283;52.504;13.358;2023-02-19T13:41:59;101649.38;;;6.95;55.01
41596;BME280;27283;52.504;13.358;2023-02-19T13:44:32;101637.16;;;7.58;53.06
41596;BME280;27283;52.504;13.358;2023-02-19T13:47:48;101640.47;;;6.94;53.07
41596;BME280;27283;52.504;13.358;2023-02-19T13:50:25;101651.25;;;6.59;53.13
41596;BME280;27283;52.504;13.358;2023-02-19T13:52:58;101646.69;;;6.95;52.80
41596;BME280;27283;52.504;13.358;2023-02-19T13:55:48;101652.00;;;6.83;53.18